Time;durP1;ratioP1;P1;durP2;ratioP2;P2;SDS_P1;SDS_P2;PMS_P1;PMS_P2;Temp;Humidity;BMP_temperature;BMP_pressure;BME280_temperature;BME280_humidity;BME280_pressure;Samples;Min_cycle;Max_cycle;Signal;HPM_P1;HPM_P2
2022/10/23 00:01:34;;;;;;;11.53;10.63;;;;;;;12.07;100.00;96823.63;5076688;28;20220;-58
2022/10/23 00:04:01;;;;;;;11.23;10.13;;;;;;;11.98;100.00;96825.03;5095643;28;20786;-58
2022/10/23 00:06:28;;;;;;;12.77;11.53;;;;;;;12.00;100.00;96824.78;5077399;28;20212;-57
2022/10/23 00:08:54;;;;;;;12.70;11.60;;;;;;;12.00;100.00;96811.66;5096152;28;20172;-56
2022/10/23 00:11:22;;;;;;;13.50;12.30;;;;;;;11.97;100.00;96812.94;5095562;28;20169;-59
2022/10/23 00:13:49;;;;;;;13.63;12.50;;;;;;;11.91;100.00;96802.56;5061671;28;20165;-58
2022/10/23 00:16:14;;;;;;;13.43;12.30;;;;;;;11.84;100.00;96794.03;5095319;28;20177;-56
2022/10/23 00:18:40;;;;;;;13.73;12.73;;;;;;;11.82;100.00;96796.06;5077307;28;20522;-57
2022/10/23 00:21:09;;;;;;;14.00;12.80;;;;;;;11.80;100.00;96793.69;5095325;28;20506;-57
2022/10/23 00:23:35;;;;;;;13.87;12.67;;;;;;;11.87;100.00;96785.69;5095000;28;20687;-55
2022/10/23 00:26:01;;;;;;;14.83;13.47;;;;;;;11.78;100.00;96789.69;5094574;28;20197;-56
2022/10/23 00:28:26;;;;;;;15.53;14.33;;;;;;;11.70;100.00;96800.56;5095059;28;20180;-56
2022/10/23 00:30:52;;;;;;;18.13;16.50;;;;;;;11.64;100.00;96799.66;5076551;28;20706;-57
2022/10/23 00:33:17;;;;;;;18.47;16.77;;;;;;;11.78;100.00;96808.09;5094386;28;20249;-57
2022/10/23 00:35:43;;;;;;;19.00;17.20;;;;;;;11.76;100.00;96815.41;5094084;28;20169;-55
2022/10/23 00:38:09;;;;;;;15.90;14.43;;;;;;;11.77;100.00;96815.16;5094390;28;20207;-56
2022/10/23 00:40:36;;;;;;;13.43;12.20;;;;;;;11.80;100.00;96809.47;5094806;28;20301;-55
2022/10/23 00:43:02;;;;;;;12.27;11.07;;;;;;;11.71;100.00;96802.94;5094799;28;20260;-56
2022/10/23 00:45:33;;;;;;;12.87;11.73;;;;;;;11.72;100.00;96804.53;5094319;28;20272;-57
2022/10/23 00:48:02;;;;;;;11.67;10.37;;;;;;;11.57;100.00;96805.03;5091767;28;20704;-56
2022/10/23 00:50:30;;;;;;;11.50;10.40;;;;;;;11.65;100.00;96806.47;5094524;28;20184;-57
2022/10/23 00:52:58;;;;;;;15.73;11.53;;;;;;;11.66;100.00;96797.59;5094645;28;20607;-57
2022/10/23 00:55:25;;;;;;;12.87;11.57;;;;;;;11.59;100.00;96800.34;5094429;28;20189;-56
2022/10/23 00:57:51;;;;;;;13.97;11.57;;;;;;;11.64;100.00;96789.16;5094153;28;20211;-56
2022/10/23 01:00:24;;;;;;;13.13;11.93;;;;;;;11.59;100.00;96783.81;5093746;28;20192;-57
2022/10/23 01:02:50;;;;;;;12.23;11.27;;;;;;;11.64;100.00;96792.59;5094505;28;20512;-53
2022/10/23 01:05:16;;;;;;;11.17;9.73;;;;;;;11.65;100.00;96788.91;5093649;28;20234;-58
2022/10/23 01:07:52;;;;;;;11.47;10.47;;;;;;;11.62;100.00;96799.09;5093801;28;20208;-55
2022/10/23 01:10:33;;;;;;;11.00;10.03;;;;;;;11.60;100.00;96791.44;5094472;28;20259;-56
2022/10/23 01:12:59;;;;;;;12.93;10.17;;;;;;;11.64;100.00;96795.22;5094058;28;20226;-57
2022/10/23 01:15:37;;;;;;;12.30;10.90;;;;;;;11.61;100.00;96789.59;5093800;28;20180;-51
2022/10/23 01:18:40;;;;;;;12.70;11.63;;;;;;;11.63;100.00;96787.56;5094026;28;20224;-50
2022/10/23 01:21:05;;;;;;;13.30;12.20;;;;;;;11.63;100.00;96779.69;5093922;28;20173;-51
2022/10/23 01:23:45;;;;;;;13.87;12.73;;;;;;;11.55;100.00;96782.66;5074489;28;20649;-54
2022/10/23 01:26:58;;;;;;;12.57;11.43;;;;;;;11.61;100.00;96776.47;5093591;28;20645;-54
2022/10/23 01:29:29;;;;;;;12.80;11.60;;;;;;;11.63;100.00;96774.44;5003909;28;20618;-55
2022/10/23 01:32:08;;;;;;;12.33;11.33;;;;;;;11.65;100.00;96781.03;5085524;28;20177;-53
2022/10/23 01:34:39;;;;;;;11.50;10.50;;;;;;;11.64;100.00;96768.97;5093145;28;20563;-51
2022/10/23 01:37:06;;;;;;;11.13;9.90;;;;;;;11.60;100.00;96767.81;5093655;28;20647;-51
2022/10/23 01:39:37;;;;;;;11.80;10.10;;;;;;;11.63;100.00;96769.97;5093524;28;20219;-53
2022/10/23 01:42:34;;;;;;;10.23;9.20;;;;;;;11.65;100.00;96761.84;5093361;28;20629;-51
2022/10/23 01:45:07;;;;;;;9.77;8.97;;;;;;;11.68;100.00;96753.53;5069575;28;20196;-51
2022/10/23 01:47:35;;;;;;;9.73;8.33;;;;;;;11.70;100.00;96754.09;5090951;28;20669;-54
2022/10/23 01:50:04;;;;;;;9.23;8.57;;;;;;;11.75;100.00;96753.41;5093571;28;20203;-52
2022/10/23 01:52:30;;;;;;;10.17;9.37;;;;;;;11.78;100.00;96748.50;5093481;28;20184;-55
2022/10/23 01:54:58;;;;;;;11.07;10.20;;;;;;;11.78;100.00;96751.13;5085092;28;20172;-54
2022/10/23 01:57:27;;;;;;;10.10;9.27;;;;;;;11.84;100.00;96752.81;5092944;28;20664;-57
2022/10/23 01:59:56;;;;;;;11.10;10.13;;;;;;;11.85;100.00;96750.97;5092196;28;20642;-58
2022/10/23 02:02:23;;;;;;;12.67;11.77;;;;;;;11.86;100.00;96742.88;5093354;28;20204;-58
2022/10/23 02:05:13;;;;;;;7.23;6.63;;;;;;;11.95;100.00;96749.31;5092597;28;20298;-58
2022/10/23 02:07:39;;;;;;;5.53;5.13;;;;;;;11.98;100.00;96737.56;5092541;28;20288;-58
2022/10/23 02:10:06;;;;;;;6.23;5.77;;;;;;;11.94;100.00;96739.06;5092528;28;20906;-58
2022/10/23 02:12:49;;;;;;;8.13;6.20;;;;;;;11.97;100.00;96734.13;5092661;28;20176;-58
2022/10/23 02:15:28;;;;;;;8.87;5.93;;;;;;;12.00;100.00;96728.41;5092895;28;20181;-58
2022/10/23 02:17:56;;;;;;;7.30;5.67;;;;;;;12.04;100.00;96724.25;5092618;28;20661;-58
2022/10/23 02:20:44;;;;;;;10.33;9.50;;;;;;;12.05;100.00;96728.47;5092978;28;20755;-58
2022/10/23 02:23:29;;;;;;;8.57;7.87;;;;;;;12.09;100.00;96729.59;5084648;28;20656;-58
2022/10/23 02:26:11;;;;;;;16.00;15.00;;;;;;;12.09;100.00;96728.81;5092321;28;20172;-57
2022/10/23 02:28:42;;;;;;;10.63;9.83;;;;;;;12.14;100.00;96725.47;5092757;28;20180;-57
2022/10/23 02:31:11;;;;;;;7.47;6.77;;;;;;;12.13;100.00;96719.44;5091848;28;20173;-58
2022/10/23 02:33:37;;;;;;;7.27;6.87;;;;;;;12.09;100.00;96716.47;5092107;28;20271;-58
2022/10/23 02:36:03;;;;;;;10.83;9.93;;;;;;;12.07;100.00;96710.66;5092363;28;20263;-59
2022/10/23 02:38:40;;;;;;;10.73;9.83;;;;;;;12.02;100.00;96713.22;5092370;28;20230;-56
2022/10/23 02:41:06;;;;;;;10.90;10.17;;;;;;;11.94;100.00;96708.34;5074069;28;20184;-59
2022/10/23 02:43:39;;;;;;;9.27;8.77;;;;;;;11.96;100.00;96714.16;5074171;28;20658;-57
2022/10/23 02:46:20;;;;;;;10.43;9.73;;;;;;;11.95;100.00;96709.13;5089355;28;20246;-56
2022/10/23 02:49:04;;;;;;;10.90;10.00;;;;;;;12.01;100.00;96702.94;5092540;28;20173;-58
2022/10/23 02:51:32;;;;;;;9.17;8.57;;;;;;;12.03;100.00;96693.00;5092016;28;20652;-56
2022/10/23 02:54:30;;;;;;;9.97;9.23;;;;;;;12.06;100.00;96690.69;5091459;28;20221;-58
2022/10/23 02:57:04;;;;;;;11.23;9.80;;;;;;;11.98;100.00;96691.06;5091838;28;20261;-57
2022/10/23 02:59:42;;;;;;;10.73;9.83;;;;;;;11.86;100.00;96687.72;5091324;28;20183;-58
2022/10/23 03:02:18;;;;;;;11.37;10.67;;;;;;;11.88;100.00;96685.63;5092513;28;20271;-59
2022/10/23 03:04:45;;;;;;;11.37;10.33;;;;;;;11.77;100.00;96686.50;5092194;28;20180;-58
2022/10/23 03:07:12;;;;;;;12.73;11.73;;;;;;;11.65;100.00;96696.22;5092413;28;20212;-58
2022/10/23 03:09:37;;;;;;;22.77;11.83;;;;;;;11.66;100.00;96682.06;5091962;28;20188;-59
2022/10/23 03:12:03;;;;;;;15.33;13.63;;;;;;;11.65;100.00;96688.34;5092093;28;20176;-58
2022/10/23 03:14:28;;;;;;;16.67;15.37;;;;;;;11.56;100.00;96689.75;5091772;28;20242;-58
2022/10/23 03:16:54;;;;;;;15.20;13.77;;;;;;;11.50;100.00;96686.25;5092061;28;20196;-57
2022/10/23 03:19:19;;;;;;;13.30;12.00;;;;;;;11.50;100.00;96688.88;5092071;28;20540;-58
2022/10/23 03:21:44;;;;;;;12.90;11.80;;;;;;;11.42;100.00;96691.88;5092595;28;20215;-58
2022/10/23 03:24:10;;;;;;;11.90;10.50;;;;;;;11.45;100.00;96694.03;5092138;28;20180;-56
2022/10/23 03:26:35;;;;;;;11.67;10.37;;;;;;;11.45;100.00;96690.59;5091231;28;20268;-59
2022/10/23 03:29:00;;;;;;;11.83;10.93;;;;;;;11.39;100.00;96678.41;5095908;28;20176;-56
2022/10/23 03:31:26;;;;;;;12.93;11.83;;;;;;;11.33;100.00;96685.41;5095341;28;20321;-56
2022/10/23 03:33:51;;;;;;;13.60;12.30;;;;;;;11.25;100.00;96683.97;5095792;28;20600;-58
2022/10/23 03:36:17;;;;;;;13.67;12.40;;;;;;;11.30;100.00;96678.00;5095689;28;20188;-58
2022/10/23 03:38:42;;;;;;;12.83;11.63;;;;;;;11.26;100.00;96680.28;5095067;28;20535;-58
2022/10/23 03:41:07;;;;;;;13.30;12.30;;;;;;;11.31;100.00;96676.97;5087913;28;20191;-58
2022/10/23 03:43:33;;;;;;;12.47;11.23;;;;;;;11.29;100.00;96672.97;5095618;28;20188;-58
2022/10/23 03:45:59;;;;;;;10.57;9.63;;;;;;;11.26;100.00;96674.22;5093152;28;20266;-57
2022/10/23 03:48:25;;;;;;;11.07;9.93;;;;;;;11.29;100.00;96675.59;5095524;28;20226;-58
2022/10/23 03:50:51;;;;;;;11.50;9.53;;;;;;;11.24;100.00;96671.06;5095508;28;20177;-58
2022/10/23 03:53:16;;;;;;;10.60;9.47;;;;;;;11.33;100.00;96669.66;5095873;28;20208;-58
2022/10/23 03:55:43;;;;;;;14.13;9.80;;;;;;;11.38;100.00;96659.25;5095351;28;20172;-58
2022/10/23 03:58:08;;;;;;;11.40;10.37;;;;;;;11.39;100.00;96657.41;5095483;28;20243;-58
2022/10/23 04:00:34;;;;;;;10.90;10.10;;;;;;;11.34;100.00;96662.56;5094920;28;20275;-56
2022/10/23 04:02:59;;;;;;;11.10;10.17;;;;;;;11.41;100.00;96663.25;5095309;28;20172;-59
2022/10/23 04:05:25;;;;;;;11.07;9.97;;;;;;;11.47;100.00;96657.84;5095323;28;20192;-57
2022/10/23 04:07:50;;;;;;;12.67;11.63;;;;;;;11.33;100.00;96661.78;5094830;28;20223;-55
2022/10/23 04:10:16;;;;;;;12.53;11.63;;;;;;;11.34;100.00;96667.81;5095544;28;20181;-58
2022/10/23 04:12:41;;;;;;;10.93;10.07;;;;;;;11.31;100.00;96666.47;5095364;28;20238;-58
2022/10/23 04:15:07;;;;;;;10.70;9.80;;;;;;;11.39;100.00;96671.34;5095346;28;20172;-58
2022/10/23 04:17:32;;;;;;;12.20;11.20;;;;;;;11.37;100.00;96668.16;5094160;28;20196;-56
2022/10/23 04:19:58;;;;;;;10.33;9.50;;;;;;;11.28;100.00;96669.56;5095411;28;20747;-57
2022/10/23 04:22:23;;;;;;;11.70;10.53;;;;;;;11.30;100.00;96667.50;5095877;28;20640;-58
2022/10/23 04:24:48;;;;;;;10.73;9.80;;;;;;;11.29;100.00;96670.34;5094800;28;20234;-58
2022/10/23 04:27:14;;;;;;;10.77;9.77;;;;;;;11.26;100.00;96677.66;5094379;28;20295;-58
2022/10/23 04:29:39;;;;;;;11.40;10.37;;;;;;;11.31;100.00;96670.94;5094582;28;20230;-58
2022/10/23 04:32:06;;;;;;;11.57;10.57;;;;;;;11.35;100.00;96672.84;5094844;28;20177;-58
2022/10/23 04:34:31;;;;;;;11.50;10.60;;;;;;;11.26;100.00;96680.28;5094487;28;20188;-58
2022/10/23 04:36:57;;;;;;;11.43;10.53;;;;;;;11.34;100.00;96684.38;5094723;28;20258;-58
2022/10/23 04:39:22;;;;;;;11.10;10.20;;;;;;;11.31;100.00;96681.44;5093521;28;20524;-57
2022/10/23 04:41:47;;;;;;;10.50;9.80;;;;;;;11.42;100.00;96680.59;5094453;28;20180;-58
2022/10/23 04:44:13;;;;;;;12.47;11.63;;;;;;;11.46;100.00;96673.84;5094145;28;20176;-59
2022/10/23 04:46:38;;;;;;;12.50;11.50;;;;;;;11.45;100.00;96666.97;5092285;28;20627;-59
2022/10/23 04:49:04;;;;;;;10.03;9.23;;;;;;;11.51;100.00;96663.44;5094358;28;20611;-58
2022/10/23 04:51:29;;;;;;;10.60;9.70;;;;;;;11.45;100.00;96665.16;5094485;28;20177;-58
2022/10/23 04:53:54;;;;;;;11.37;10.40;;;;;;;11.56;100.00;96671.38;5094182;28;20177;-56
2022/10/23 04:56:20;;;;;;;11.43;10.53;;;;;;;11.57;100.00;96671.16;5094321;28;20172;-58
2022/10/23 04:58:45;;;;;;;12.47;11.57;;;;;;;11.54;100.00;96663.75;5093519;28;20525;-58
2022/10/23 05:01:11;;;;;;;13.20;12.00;;;;;;;11.57;100.00;96667.72;5094216;28;20185;-58
2022/10/23 05:03:37;;;;;;;12.40;11.60;;;;;;;11.56;100.00;96669.56;5093889;28;20192;-56
2022/10/23 05:06:04;;;;;;;9.53;8.90;;;;;;;11.67;100.00;96667.91;5093960;28;20259;-58
2022/10/23 05:08:30;;;;;;;10.70;9.80;;;;;;;11.67;100.00;96665.28;5094371;28;20204;-58
2022/10/23 05:10:55;;;;;;;12.27;11.07;;;;;;;11.68;100.00;96661.63;5094287;28;20255;-56
2022/10/23 05:13:21;;;;;;;12.37;11.37;;;;;;;11.65;100.00;96659.47;5094360;28;20622;-58
2022/10/23 05:15:50;;;;;;;13.00;12.07;;;;;;;11.72;100.00;96662.75;5093430;28;20600;-57
2022/10/23 05:18:25;;;;;;;12.73;11.77;;;;;;;11.62;100.00;96662.56;5081189;28;20261;-56
2022/10/23 05:20:55;;;;;;;13.37;12.37;;;;;;;11.62;100.00;96655.50;5093978;28;20203;-56
2022/10/23 05:23:24;;;;;;;11.60;10.77;;;;;;;11.56;100.00;96653.81;5093656;28;20215;-57
2022/10/23 05:25:49;;;;;;;11.47;10.43;;;;;;;11.51;100.00;96648.47;5093529;28;20181;-57
2022/10/23 05:28:15;;;;;;;11.70;10.80;;;;;;;11.51;100.00;96650.31;5075392;28;20224;-54
2022/10/23 05:30:41;;;;;;;11.80;10.70;;;;;;;11.52;100.00;96646.66;5093632;28;20169;-58
2022/10/23 05:33:10;;;;;;;11.00;10.13;;;;;;;11.51;100.00;96645.06;5093761;28;20181;-56
2022/10/23 05:35:36;;;;;;;10.80;10.00;;;;;;;11.52;100.00;96644.03;5093632;28;20653;-58
2022/10/23 05:38:02;;;;;;;11.33;10.53;;;;;;;11.71;100.00;96645.41;5093547;28;20549;-54
2022/10/23 05:40:27;;;;;;;12.47;10.53;;;;;;;11.60;100.00;96641.00;5093692;28;20188;-58
2022/10/23 05:42:53;;;;;;;10.73;9.83;;;;;;;11.74;100.00;96642.34;5093490;28;20344;-55
2022/10/23 05:45:18;;;;;;;10.97;10.03;;;;;;;11.73;100.00;96646.00;5093115;28;20188;-57
2022/10/23 05:47:45;;;;;;;13.07;11.87;;;;;;;11.67;100.00;96639.84;5091218;28;20827;-57
2022/10/23 05:50:10;;;;;;;11.77;10.87;;;;;;;11.72;100.00;96633.88;5093264;28;20543;-58
2022/10/23 05:52:36;;;;;;;12.97;12.10;;;;;;;11.61;100.00;96635.53;5093435;28;20206;-55
2022/10/23 05:55:01;;;;;;;10.50;9.57;;;;;;;11.45;100.00;96631.03;5093477;28;20191;-57
2022/10/23 05:57:26;;;;;;;10.10;9.30;;;;;;;11.59;100.00;96628.94;5093300;28;20249;-61
2022/10/23 05:59:52;;;;;;;12.67;11.57;;;;;;;11.61;100.00;96630.28;5092716;28;20181;-58
2022/10/23 06:02:17;;;;;;;12.63;11.73;;;;;;;11.59;100.00;96627.06;5093463;28;20176;-58
2022/10/23 06:04:42;;;;;;;10.83;10.03;;;;;;;11.54;100.00;96623.56;5093305;28;20165;-59
2022/10/23 06:07:08;;;;;;;10.27;9.57;;;;;;;11.47;100.00;96617.69;5092584;28;20216;-58
2022/10/23 06:09:33;;;;;;;11.30;10.10;;;;;;;11.41;100.00;96629.13;5083077;28;20192;-57
2022/10/23 06:12:00;;;;;;;10.53;9.47;;;;;;;11.41;100.00;96629.94;5092491;28;20259;-58
2022/10/23 06:14:25;;;;;;;10.67;9.67;;;;;;;11.57;100.00;96628.38;5092701;28;20219;-58
2022/10/23 06:16:51;;;;;;;9.20;8.50;;;;;;;11.58;100.00;96625.50;5092946;28;20657;-58
2022/10/23 06:19:16;;;;;;;8.70;8.00;;;;;;;11.60;100.00;96623.44;5093191;28;20259;-57
2022/10/23 06:21:42;;;;;;;9.77;8.93;;;;;;;11.70;100.00;96616.78;5092562;28;20221;-57
2022/10/23 06:24:07;;;;;;;10.17;9.37;;;;;;;11.67;100.00;96623.28;5092264;28;20255;-58
2022/10/23 06:26:33;;;;;;;11.53;10.53;;;;;;;11.66;100.00;96622.47;5092121;28;20216;-58
2022/10/23 06:29:02;;;;;;;11.57;10.67;;;;;;;11.73;100.00;96619.75;5092413;28;20184;-57
2022/10/23 06:31:27;;;;;;;13.43;12.27;;;;;;;11.68;100.00;96617.00;5073922;28;20179;-58
2022/10/23 06:33:57;;;;;;;13.27;12.37;;;;;;;11.65;100.00;96625.34;5074841;28;20173;-57
2022/10/23 06:36:24;;;;;;;10.73;9.30;;;;;;;11.75;100.00;96627.38;5093163;28;20202;-59
2022/10/23 06:38:50;;;;;;;9.67;8.93;;;;;;;11.74;100.00;96623.16;5092206;28;20188;-58
2022/10/23 06:41:18;;;;;;;10.30;9.50;;;;;;;11.76;100.00;96616.63;5092569;28;20175;-61
2022/10/23 06:43:46;;;;;;;11.37;10.43;;;;;;;11.84;100.00;96613.63;5092142;28;20172;-57
2022/10/23 06:46:12;;;;;;;11.30;10.40;;;;;;;11.82;100.00;96620.13;5089490;28;20306;-59
2022/10/23 06:48:37;;;;;;;10.03;9.37;;;;;;;11.86;100.00;96619.44;5092557;28;20177;-59
2022/10/23 06:51:06;;;;;;;9.80;8.13;;;;;;;11.93;100.00;96621.88;5092065;28;20252;-55
2022/10/23 06:53:31;;;;;;;7.83;7.23;;;;;;;11.86;100.00;96621.28;5092300;28;20212;-59
2022/10/23 06:56:02;;;;;;;8.07;7.43;;;;;;;11.93;100.00;96617.44;5092301;28;20561;-64
2022/10/23 06:58:28;;;;;;;6.73;6.17;;;;;;;12.10;100.00;96609.53;5091589;28;20180;-56
2022/10/23 07:00:54;;;;;;;7.43;6.80;;;;;;;12.12;100.00;96602.22;5092628;28;20225;-55
2022/10/23 07:03:19;;;;;;;8.83;8.20;;;;;;;12.24;100.00;96608.19;5091828;28;20188;-55
2022/10/23 07:05:46;;;;;;;8.63;7.90;;;;;;;12.26;100.00;96607.97;5091941;28;20169;-56
2022/10/23 07:08:12;;;;;;;7.40;6.70;;;;;;;12.32;100.00;96620.09;5074088;28;20204;-59
2022/10/23 07:10:37;;;;;;;10.37;9.60;;;;;;;13.08;100.00;96615.84;5092230;28;20853;-61
2022/10/23 07:13:03;;;;;;;9.23;8.33;;;;;;;13.94;100.00;96619.31;5092362;28;20187;-63
2022/10/23 07:15:29;;;;;;;12.80;11.87;;;;;;;13.51;100.00;96613.16;5091513;28;20289;-59
2022/10/23 07:17:55;;;;;;;35.80;33.63;;;;;;;13.24;100.00;96610.53;5091805;28;20203;-57
2022/10/23 07:20:21;;;;;;;34.17;32.00;;;;;;;13.07;100.00;96612.41;5092414;28;20173;-57
2022/10/23 07:22:53;;;;;;;66.00;62.37;;;;;;;13.14;100.00;96615.69;5092139;28;20172;-57
2022/10/23 07:25:20;;;;;;;13.00;12.20;;;;;;;13.19;100.00;96614.94;5092034;28;20184;-56
2022/10/23 07:27:46;;;;;;;11.33;10.70;;;;;;;12.97;100.00;96612.31;5091508;28;20212;-58
2022/10/23 07:30:13;;;;;;;12.83;11.93;;;;;;;13.25;100.00;96608.69;5091483;28;20593;-57
2022/10/23 07:32:38;;;;;;;13.23;12.33;;;;;;;13.21;100.00;96608.38;5092341;28;20188;-56
2022/10/23 07:35:04;;;;;;;23.63;22.17;;;;;;;13.25;100.00;96608.69;5092411;28;20177;-57
2022/10/23 07:37:30;;;;;;;21.73;20.23;;;;;;;13.20;100.00;96612.06;5091945;28;20204;-54
2022/10/23 07:39:56;;;;;;;8.53;7.43;;;;;;;13.29;100.00;96618.47;5073646;28;20195;-57
2022/10/23 07:42:21;;;;;;;10.80;10.13;;;;;;;13.35;100.00;96623.78;5091978;28;20215;-58
2022/10/23 07:44:46;;;;;;;20.23;18.93;;;;;;;13.36;100.00;96622.75;5091281;28;20237;-57
2022/10/23 07:47:12;;;;;;;20.40;19.10;;;;;;;13.70;100.00;96626.78;5088814;28;20251;-55
2022/10/23 07:49:37;;;;;;;21.50;20.30;;;;;;;13.70;100.00;96626.78;5089753;28;20296;-57
2022/10/23 07:52:06;;;;;;;12.60;11.77;;;;;;;13.74;100.00;96636.56;5091941;28;20180;-57
2022/10/23 07:54:31;;;;;;;17.27;16.27;;;;;;;13.91;100.00;96625.09;5091947;28;20242;-57
2022/10/23 07:56:59;;;;;;;14.40;13.40;;;;;;;14.06;100.00;96628.66;5091889;28;20251;-55
2022/10/23 07:59:25;;;;;;;13.73;12.93;;;;;;;14.02;100.00;96632.06;5091279;28;20227;-56
2022/10/23 08:01:53;;;;;;;13.13;12.23;;;;;;;14.19;100.00;96621.38;5091753;28;20232;-58
2022/10/23 08:04:19;;;;;;;11.23;10.33;;;;;;;14.13;100.00;96625.81;5092180;28;20183;-54
2022/10/23 08:06:44;;;;;;;9.73;9.00;;;;;;;14.09;100.00;96624.72;5092218;28;20212;-57
2022/10/23 08:09:09;;;;;;;8.00;7.50;;;;;;;14.15;100.00;96618.44;5092226;28;20491;-57
2022/10/23 08:11:35;;;;;;;10.60;9.90;;;;;;;14.44;100.00;96621.56;5092013;28;20173;-58
2022/10/23 08:14:05;;;;;;;25.50;24.03;;;;;;;14.55;100.00;96618.72;5076020;28;20636;-57
2022/10/23 08:16:33;;;;;;;19.07;17.83;;;;;;;14.67;100.00;96599.25;5095470;28;20200;-58
2022/10/23 08:18:59;;;;;;;13.77;12.87;;;;;;;14.74;100.00;96610.38;5095641;28;20610;-58
2022/10/23 08:21:25;;;;;;;26.80;25.23;;;;;;;14.63;100.00;96611.38;5095401;28;20172;-61
2022/10/23 08:23:53;;;;;;;17.73;16.73;;;;;;;14.76;100.00;96603.00;5095142;28;20181;-54
2022/10/23 08:26:19;;;;;;;7.17;6.73;;;;;;;15.05;100.00;96598.88;5094909;28;20291;-53
2022/10/23 08:28:44;;;;;;;12.57;11.93;;;;;;;15.18;100.00;96602.91;5094158;28;20751;-56
2022/10/23 08:31:12;;;;;;;14.57;13.77;;;;;;;15.12;100.00;96593.38;5076702;28;20182;-53
2022/10/23 08:33:38;;;;;;;12.07;11.37;;;;;;;15.36;100.00;96589.22;5092978;28;20216;-55
2022/10/23 08:36:05;;;;;;;14.43;13.57;;;;;;;15.43;100.00;96589.75;5094896;28;20626;-57
2022/10/23 08:38:30;;;;;;;11.50;10.90;;;;;;;15.65;100.00;96592.19;5095251;28;20236;-55
2022/10/23 08:40:56;;;;;;;18.90;17.70;;;;;;;15.71;100.00;96583.22;5088730;28;20264;-53
2022/10/23 08:43:34;;;;;;;18.40;17.47;;;;;;;15.44;100.00;96591.31;5078664;28;20264;-58
2022/10/23 08:46:15;;;;;;;18.40;17.47;;;;;;;15.41;100.00;96586.59;5091447;28;20236;-56
2022/10/23 08:48:47;;;;;;;28.73;27.07;;;;;;;15.49;100.00;96587.94;5092810;28;20181;-61
2022/10/23 08:51:36;;;;;;;10.60;10.10;;;;;;;15.54;100.00;96572.91;5090998;28;20597;-53
2022/10/23 08:54:06;;;;;;;7.73;7.23;;;;;;;15.56;100.00;96578.69;5094164;28;20173;-55
2022/10/23 08:56:34;;;;;;;9.30;8.73;;;;;;;15.62;99.18;96580.28;5094938;28;20221;-58
2022/10/23 08:59:06;;;;;;;8.37;7.77;;;;;;;15.63;100.00;96575.81;5093145;28;20199;-53
2022/10/23 09:01:45;;;;;;;7.27;6.77;;;;;;;15.65;99.24;96573.69;5094831;28;20192;-58
2022/10/23 09:04:12;;;;;;;8.93;8.40;;;;;;;15.74;99.10;96578.19;5094261;28;20641;-54
2022/10/23 09:06:56;;;;;;;14.53;13.60;;;;;;;15.77;98.76;96579.53;5094757;28;20672;-55
2022/10/23 09:09:25;;;;;;;8.83;8.33;;;;;;;15.88;97.67;96567.91;5094633;28;20234;-58
2022/10/23 09:12:02;;;;;;;7.87;7.27;;;;;;;16.02;97.25;96573.41;5094532;28;20290;-56
2022/10/23 09:14:42;;;;;;;14.43;13.57;;;;;;;16.21;95.05;96574.47;5094210;28;20749;-58
2022/10/23 09:17:22;;;;;;;8.87;8.37;;;;;;;16.42;92.63;96573.38;5094331;28;20707;-53
2022/10/23 09:19:53;;;;;;;7.13;6.83;;;;;;;16.49;91.83;96575.72;5094186;28;20180;-55
2022/10/23 09:22:18;;;;;;;12.27;11.40;;;;;;;16.48;92.05;96588.16;5094067;28;20176;-58
2022/10/23 09:24:44;;;;;;;10.48;9.50;;;;;;;16.57;90.79;96586.53;5093696;28;20180;-58
2022/10/23 09:27:15;;;;;;;6.88;6.57;;;;;;;16.78;91.83;96578.56;5093323;28;20212;-57
2022/10/23 09:29:50;;;;;;;8.30;7.78;;;;;;;16.80;90.61;96573.78;5093704;28;20551;-56
2022/10/23 09:32:16;;;;;;;8.80;8.25;;;;;;;16.83;90.89;96574.03;5094107;28;20168;-58
2022/10/23 09:34:53;;;;;;;8.47;7.97;;;;;;;16.99;90.15;96566.84;5094164;28;20176;-53
2022/10/23 09:37:26;;;;;;;8.07;7.63;;;;;;;17.01;89.91;96572.63;5093712;28;20675;-58
2022/10/23 09:40:14;;;;;;;6.60;6.20;;;;;;;17.03;86.79;96567.88;5092712;28;20541;-54
2022/10/23 09:42:52;;;;;;;8.32;7.75;;;;;;;17.16;86.52;96564.63;5092773;28;20180;-61
2022/10/23 09:48:16;;;;;;;25.30;23.75;;;;;;;17.33;85.53;96551.03;5091213;28;20251;-58
2022/10/23 09:50:47;;;;;;;9.48;8.77;;;;;;;17.36;89.62;96553.91;5093308;28;20314;-58
2022/10/23 09:53:17;;;;;;;19.48;18.33;;;;;;;17.46;89.75;96553.84;5093592;28;20184;-57
2022/10/23 09:55:51;;;;;;;54.83;51.78;;;;;;;17.68;87.38;96548.13;5093235;28;20161;-58
2022/10/23 09:58:23;;;;;;;46.90;44.40;;;;;;;17.70;86.72;96550.53;5074267;28;20613;-57
2022/10/23 10:00:49;;;;;;;55.60;52.50;;;;;;;17.75;84.28;96551.28;5093145;28;20175;-57
2022/10/23 10:03:22;;;;;;;61.85;58.38;;;;;;;17.88;86.72;96552.50;5093099;28;20548;-56
2022/10/23 10:05:57;;;;;;;41.63;38.95;;;;;;;17.98;86.41;96557.72;5084758;28;20272;-56
2022/10/23 10:08:30;;;;;;;71.70;67.50;;;;;;;18.18;88.01;96557.50;5092968;28;20707;-56
2022/10/23 10:11:07;;;;;;;45.67;43.15;;;;;;;18.07;88.07;96565.84;5093517;28;20282;-56
2022/10/23 10:13:32;;;;;;;51.17;48.42;;;;;;;17.97;89.83;96569.38;5092882;28;20669;-57
2022/10/23 10:16:20;;;;;;;82.25;77.72;;;;;;;18.14;90.24;96568.97;5092932;28;20188;-58
2022/10/23 10:18:55;;;;;;;14.98;14.10;;;;;;;18.06;91.81;96565.03;5093534;28;20215;-57
2022/10/23 10:21:26;;;;;;;11.10;10.43;;;;;;;18.14;92.13;96563.66;5092982;28;20169;-58
2022/10/23 10:24:04;;;;;;;43.00;39.97;;;;;;;18.12;90.85;96561.28;5092604;28;20172;-58
2022/10/23 10:26:51;;;;;;;51.10;48.22;;;;;;;18.33;87.79;96561.09;5067717;28;20227;-57
2022/10/23 10:29:35;;;;;;;50.30;47.50;;;;;;;18.35;85.75;96559.72;5086753;28;20176;-58
2022/10/23 10:32:26;;;;;;;40.25;37.95;;;;;;;18.47;87.63;96544.22;5080694;28;20170;-56
2022/10/23 10:35:10;;;;;;;122.82;116.43;;;;;;;18.61;85.55;96553.09;5062100;28;20238;-58
2022/10/23 10:37:57;;;;;;;100.00;94.60;;;;;;;18.78;86.08;96546.56;5078099;28;20274;-58
2022/10/23 10:40:30;;;;;;;88.68;83.70;;;;;;;18.94;82.47;96539.97;5073099;28;20203;-57
2022/10/23 10:43:22;;;;;;;210.98;199.20;;;;;;;18.99;85.25;96521.31;5091319;28;20544;-57
2022/10/23 10:46:02;;;;;;;83.28;78.75;;;;;;;19.03;83.47;96517.78;5088856;28;20180;-58
2022/10/23 10:48:47;;;;;;;173.60;163.85;;;;;;;19.10;86.89;96498.84;5074317;28;20196;-64
2022/10/23 10:51:18;;;;;;;252.70;238.40;;;;;;;19.20;90.88;96501.34;5092080;28;20217;-62
2022/10/23 10:54:21;;;;;;;134.30;126.93;;;;;;;19.12;90.19;96512.63;5091567;28;20669;-62
2022/10/23 10:56:46;;;;;;;75.72;71.43;;;;;;;19.26;90.85;96523.31;5089676;28;20544;-61
2022/10/23 10:59:23;;;;;;;281.92;265.65;;;;;;;19.22;86.57;96517.81;5086185;28;20234;-58
2022/10/23 11:01:59;;;;;;;299.90;282.45;;;;;;;18.97;86.45;96526.13;5092287;28;20157;-59
2022/10/23 11:04:37;;;;;;;189.32;179.27;;;;;;;18.98;87.52;96525.84;5092186;28;20176;-59
2022/10/23 11:07:09;;;;;;;135.13;127.90;;;;;;;19.21;86.66;96520.75;5091184;28;20643;-63
2022/10/23 11:09:34;;;;;;;312.85;294.35;;;;;;;19.26;86.46;96515.34;5092292;28;20621;-59
2022/10/23 11:12:00;;;;;;;351.20;330.98;;;;;;;19.30;85.97;96509.16;5091653;28;20199;-59
2022/10/23 11:14:29;;;;;;;286.45;270.25;;;;;;;19.32;85.94;96503.56;5092164;28;20179;-59
2022/10/23 11:17:12;;;;;;;57.08;53.83;;;;;;;19.38;85.60;96500.56;5092089;28;20184;-59
2022/10/23 11:20:00;;;;;;;31.77;29.90;;;;;;;19.51;84.93;96501.69;5092133;28;20180;-60
2022/10/23 11:22:37;;;;;;;32.20;30.35;;;;;;;19.45;84.92;96500.97;5092348;28;20342;-59
2022/10/23 11:25:32;;;;;;;28.45;26.88;;;;;;;19.50;83.69;96490.28;5091936;28;20180;-59
2022/10/23 11:28:06;;;;;;;25.25;23.92;;;;;;;19.54;84.11;96484.38;5091484;28;20208;-59
2022/10/23 11:30:45;;;;;;;27.25;25.75;;;;;;;19.25;84.86;96477.34;5082585;28;20172;-61